Time;durP1;ratioP1;P1;durP2;ratioP2;P2;SDS_P1;SDS_P2;PMS_P1;PMS_P2;Temp;Humidity;BMP_temperature;BMP_pressure;BME280_temperature;BME280_humidity;BME280_pressure;Samples;Min_cycle;Max_cycle;Signal;HPM_P1;HPM_P2
2022/12/23 00:01:14;;;;;;;;;;;;;;;12.61;61.49;100851.94;7403802;19;1853;-65
2022/12/23 00:03:45;;;;;;;;;;;;;;;12.57;61.32;100837.16;7403147;19;1011;-65
2022/12/23 00:06:15;;;;;;;;;;;;;;;12.61;61.29;100851.94;7404589;19;997;-65
2022/12/23 00:08:43;;;;;;;;;;;;;;;12.64;61.19;100854.41;7404837;19;1010;-65
2022/12/23 00:11:15;;;;;;;;;;;;;;;12.52;61.34;100845.38;7404854;19;927;-65
2022/12/23 00:16:24;;;;;;;;;;;;;;;12.38;61.79;100848.00;7404317;19;837;-65
2022/12/23 00:18:55;;;;;;;;;;;;;;;12.38;61.75;100847.16;7404466;19;1459;-65
2022/12/23 00:21:24;;;;;;;;;;;;;;;12.43;61.77;100845.06;7404337;19;1828;-65
2022/12/23 00:23:53;;;;;;;;;;;;;;;12.50;61.51;100849.94;7404431;19;1002;-65
2022/12/23 00:26:21;;;;;;;;;;;;;;;12.54;61.53;100834.69;7404362;19;964;-65
2022/12/23 00:28:50;;;;;;;;;;;;;;;12.57;61.54;100826.53;7402124;19;1585;-65
2022/12/23 00:31:20;;;;;;;;;;;;;;;12.58;61.46;100828.25;7403753;19;1024;-65
2022/12/23 00:33:49;;;;;;;;;;;;;;;12.59;61.23;100835.25;7403666;19;974;-65
2022/12/23 00:36:21;;;;;;;;;;;;;;;12.59;61.05;100824.66;7401774;19;980;-65
2022/12/23 00:44:14;;;;;;;;;;;;;;;12.45;61.66;100821.97;7401458;19;944;-65
2022/12/23 00:46:42;;;;;;;;;;;;;;;12.43;61.48;100818.56;7403325;19;960;-65
2022/12/23 00:51:56;;;;;;;;;;;;;;;12.50;61.67;100814.59;7403905;19;683;-65
2022/12/23 00:54:24;;;;;;;;;;;;;;;12.52;61.22;100812.72;7403382;19;1016;-65
2022/12/23 00:56:53;;;;;;;;;;;;;;;12.58;61.45;100816.81;7403260;19;949;-65
2022/12/23 00:59:21;;;;;;;;;;;;;;;12.61;61.31;100827.22;7402807;19;1016;-65
2022/12/23 01:07:13;;;;;;;;;;;;;;;12.56;61.32;100793.00;7402597;19;770;-66
2022/12/23 01:09:42;;;;;;;;;;;;;;;12.53;61.37;100814.41;7402866;19;919;-66
2022/12/23 01:12:10;;;;;;;;;;;;;;;12.47;61.59;100794.44;7402359;19;981;-65
2022/12/23 01:14:39;;;;;;;;;;;;;;;12.45;61.50;100792.78;7402264;19;1015;-64
2022/12/23 01:17:08;;;;;;;;;;;;;;;12.43;61.59;100782.28;7402724;19;1015;-64
2022/12/23 01:19:36;;;;;;;;;;;;;;;12.50;61.55;100793.38;7402440;19;976;-64
2022/12/23 01:22:05;;;;;;;;;;;;;;;12.52;61.63;100780.88;7402085;19;1869;-64
2022/12/23 01:24:36;;;;;;;;;;;;;;;12.58;61.25;100782.31;7400453;19;961;-64
2022/12/23 01:27:04;;;;;;;;;;;;;;;12.59;61.20;100795.47;7401932;19;1040;-64
2022/12/23 01:29:33;;;;;;;;;;;;;;;12.58;61.10;100769.91;7401827;19;937;-64
2022/12/23 01:32:01;;;;;;;;;;;;;;;12.60;61.25;100773.31;7401864;19;1013;-64
2022/12/23 01:34:29;;;;;;;;;;;;;;;12.58;61.38;100777.84;7401633;19;992;-64
2022/12/23 01:36:57;;;;;;;;;;;;;;;12.57;61.22;100783.25;7401677;19;977;-64
2022/12/23 01:39:26;;;;;;;;;;;;;;;12.56;61.32;100776.25;7400284;19;1554;-64
2022/12/23 01:44:55;;;;;;;;;;;;;;;12.43;61.64;100778.78;7401433;19;773;-64
2022/12/23 01:47:27;;;;;;;;;;;;;;;12.43;61.67;100755.75;7401403;19;945;-65
2022/12/23 01:49:58;;;;;;;;;;;;;;;12.49;61.45;100763.38;7401389;19;937;-64
2022/12/23 01:52:27;;;;;;;;;;;;;;;12.57;61.29;100786.75;7401664;19;965;-64
2022/12/23 01:54:56;;;;;;;;;;;;;;;12.52;61.09;100764.97;7399612;19;1484;-64
2022/12/23 01:57:27;;;;;;;;;;;;;;;12.60;61.34;100783.91;7401613;19;930;-65
2022/12/23 02:05:19;;;;;;;;;;;;;;;12.58;61.22;100775.19;7401685;19;786;-64
2022/12/23 02:10:32;;;;;;;;;;;;;;;12.39;61.54;100775.44;7401327;19;789;-65
2022/12/23 02:13:09;;;;;;;;;;;;;;;12.40;61.81;100769.22;7400748;19;1283;-64
2022/12/23 02:18:39;;;;;;;;;;;;;;;12.57;61.31;100757.56;7401899;19;824;-64
2022/12/23 02:21:14;;;;;;;;;;;;;;;12.55;61.43;100756.81;7400456;19;1063;-64
2022/12/23 02:24:12;;;;;;;;;;;;;;;12.55;61.32;100751.50;7398462;19;1866;-64
2022/12/23 02:26:56;;;;;;;;;;;;;;;12.56;61.32;100755.03;7402373;19;989;-64
2022/12/23 02:29:45;;;;;;;;;;;;;;;12.56;61.32;100739.97;7407620;19;985;-64
2022/12/23 02:32:18;;;;;;;;;;;;;;;12.44;61.52;100740.72;7405812;19;1120;-64
2022/12/23 02:34:51;;;;;;;;;;;;;;;12.42;61.54;100750.56;7407714;19;1031;-64
2022/12/23 02:37:23;;;;;;;;;;;;;;;12.40;61.54;100755.09;7407984;19;1099;-64
2022/12/23 02:39:53;;;;;;;;;;;;;;;12.41;61.41;100744.38;7407473;19;996;-64
2022/12/23 02:42:24;;;;;;;;;;;;;;;12.46;61.46;100744.13;7406494;19;1854;-64
2022/12/23 02:44:58;;;;;;;;;;;;;;;12.49;61.50;100731.53;7409921;19;1028;-64
2022/12/23 02:47:31;;;;;;;;;;;;;;;12.51;61.22;100737.59;7407846;19;992;-65
2022/12/23 02:50:02;;;;;;;;;;;;;;;12.55;61.23;100746.19;7407677;19;976;-65
2022/12/23 02:52:32;;;;;;;;;;;;;;;12.59;61.29;100734.44;7406945;19;940;-64
2022/12/23 02:55:04;;;;;;;;;;;;;;;12.60;61.12;100738.81;7407444;19;1169;-64
2022/12/23 02:57:35;;;;;;;;;;;;;;;12.54;61.32;100732.09;7406870;19;1071;-64
2022/12/23 03:00:04;;;;;;;;;;;;;;;12.56;61.39;100742.63;7406781;19;1037;-64
2022/12/23 03:02:37;;;;;;;;;;;;;;;12.45;61.22;100732.66;7403939;19;1846;-64
2022/12/23 03:05:06;;;;;;;;;;;;;;;12.47;61.46;100724.59;7406946;19;927;-65
2022/12/23 03:07:49;;;;;;;;;;;;;;;12.49;61.44;100739.50;7406839;19;991;-64
2022/12/23 03:10:24;;;;;;;;;;;;;;;12.57;61.16;100739.00;7406601;19;798;-65
2022/12/23 03:12:54;;;;;;;;;;;;;;;12.58;61.12;100724.81;7406848;19;1380;-64
2022/12/23 03:15:31;;;;;;;;;;;;;;;12.56;61.18;100739.97;7407222;19;990;-64
2022/12/23 03:18:06;;;;;;;;;;;;;;;12.42;61.21;100716.09;7406156;19;949;-64
2022/12/23 03:20:41;;;;;;;;;;;;;;;12.40;61.51;100713.53;7406143;19;957;-64
2022/12/23 03:23:13;;;;;;;;;;;;;;;12.30;61.97;100718.53;7404954;19;1842;-64
2022/12/23 03:25:49;;;;;;;;;;;;;;;12.28;61.76;100725.72;7405975;19;1215;-64
2022/12/23 03:28:20;;;;;;;;;;;;;;;12.47;61.71;100724.59;7406270;19;919;-64
2022/12/23 03:30:52;;;;;;;;;;;;;;;12.51;61.56;100721.69;7405779;19;1292;-64
2022/12/23 03:33:25;;;;;;;;;;;;;;;12.49;61.26;100715.63;7406194;19;983;-65
2022/12/23 03:35:57;;;;;;;;;;;;;;;12.44;61.67;100724.81;7405655;19;1111;-64
2022/12/23 03:38:26;;;;;;;;;;;;;;;12.38;61.51;100712.78;7400971;19;1371;-64
2022/12/23 03:40:57;;;;;;;;;;;;;;;12.32;61.62;100710.50;7405777;19;1102;-64
2022/12/23 03:43:28;;;;;;;;;;;;;;;12.41;61.73;100712.56;7404586;19;1854;-64
2022/12/23 03:46:00;;;;;;;;;;;;;;;12.41;61.80;100727.63;7405285;19;1095;-65
2022/12/23 03:48:33;;;;;;;;;;;;;;;12.34;61.61;100720.06;7405298;19;1202;-65
2022/12/23 03:51:05;;;;;;;;;;;;;;;12.36;61.82;100730.56;7405629;19;985;-65
2022/12/23 03:53:36;;;;;;;;;;;;;;;12.31;61.67;100722.91;7405343;19;961;-64
2022/12/23 03:56:08;;;;;;;;;;;;;;;12.37;61.66;100720.81;7405413;19;987;-64
2022/12/23 03:58:39;;;;;;;;;;;;;;;12.41;61.60;100715.22;7407683;19;1028;-64
2022/12/23 04:01:12;;;;;;;;;;;;;;;12.43;61.53;100717.78;7404065;19;1363;-65
2022/12/23 04:03:50;;;;;;;;;;;;;;;12.50;61.51;100719.97;7403910;19;1847;-66
2022/12/23 04:06:19;;;;;;;;;;;;;;;12.50;61.32;100708.50;7404954;19;990;-66
2022/12/23 04:08:48;;;;;;;;;;;;;;;12.51;61.38;100712.84;7405124;19;935;-66
2022/12/23 04:11:16;;;;;;;;;;;;;;;12.60;61.27;100720.25;7404512;19;1083;-66
2022/12/23 04:13:44;;;;;;;;;;;;;;;12.58;61.16;100706.22;7404438;19;997;-66
2022/12/23 04:16:13;;;;;;;;;;;;;;;12.49;61.34;100715.63;7402502;19;1606;-66
2022/12/23 04:18:44;;;;;;;;;;;;;;;12.41;61.30;100703.75;7404600;19;986;-66
2022/12/23 04:21:12;;;;;;;;;;;;;;;12.35;61.15;100697.03;7404619;19;1184;-66
2022/12/23 04:23:41;;;;;;;;;;;;;;;12.37;61.44;100703.09;7403028;19;1840;-66
2022/12/23 04:26:09;;;;;;;;;;;;;;;12.43;61.34;100705.38;7404025;19;1008;-66
2022/12/23 04:28:38;;;;;;;;;;;;;;;12.42;61.45;100703.69;7403735;19;1091;-66
2022/12/23 04:31:06;;;;;;;;;;;;;;;12.45;61.08;100705.28;7404302;19;991;-66
2022/12/23 04:33:34;;;;;;;;;;;;;;;12.52;61.46;100719.88;7404172;19;927;-66
2022/12/23 04:36:05;;;;;;;;;;;;;;;12.48;61.45;100711.25;7404109;19;928;-65
2022/12/23 04:38:34;;;;;;;;;;;;;;;12.54;61.00;100720.63;7404031;19;900;-66
2022/12/23 04:41:02;;;;;;;;;;;;;;;12.59;61.35;100731.78;7403742;19;935;-66
2022/12/23 04:43:30;;;;;;;;;;;;;;;12.49;61.30;100709.44;7401784;19;1849;-66
2022/12/23 04:45:58;;;;;;;;;;;;;;;12.42;61.18;100716.09;7403339;19;1442;-66
2022/12/23 04:48:27;;;;;;;;;;;;;;;12.37;61.03;100710.19;7403359;19;969;-65
2022/12/23 04:50:55;;;;;;;;;;;;;;;12.42;61.54;100724.03;7402414;19;1071;-66
2022/12/23 04:53:26;;;;;;;;;;;;;;;12.45;61.45;100727.34;7402922;19;1084;-66
2022/12/23 04:55:54;;;;;;;;;;;;;;;12.47;61.11;100724.59;7403435;19;935;-66
2022/12/23 04:58:23;;;;;;;;;;;;;;;12.51;61.24;100731.41;7403370;19;960;-66
2022/12/23 05:01:01;;;;;;;;;;;;;;;12.54;61.17;100725.94;7402048;19;1434;-65
2022/12/23 05:03:29;;;;;;;;;;;;;;;12.55;60.99;100732.94;7402043;19;1838;-66
2022/12/23 05:05:58;;;;;;;;;;;;;;;12.60;61.16;100751.25;7402554;19;1019;-66
2022/12/23 05:08:29;;;;;;;;;;;;;;;12.53;61.17;100730.41;7402502;19;1080;-65
2022/12/23 05:10:58;;;;;;;;;;;;;;;12.43;61.39;100731.03;7402550;19;1076;-65
2022/12/23 05:13:26;;;;;;;;;;;;;;;12.39;61.47;100729.53;7402449;19;1012;-66
2022/12/23 05:15:55;;;;;;;;;;;;;;;12.38;61.44;100727.84;7402811;19;1018;-66
2022/12/23 05:18:24;;;;;;;;;;;;;;;12.38;61.47;100736.63;7402061;19;1064;-66
2022/12/23 05:20:52;;;;;;;;;;;;;;;12.44;61.61;100740.72;7402197;19;1458;-66
2022/12/23 05:23:21;;;;;;;;;;;;;;;12.49;61.50;100739.50;7402103;19;1864;-66
2022/12/23 05:25:54;;;;;;;;;;;;;;;12.52;61.15;100744.59;7402109;19;1067;-66
2022/12/23 05:28:23;;;;;;;;;;;;;;;12.52;61.16;100738.44;7402311;19;935;-66
2022/12/23 05:30:58;;;;;;;;;;;;;;;12.56;61.32;100747.91;7402303;19;940;-66
2022/12/23 05:33:27;;;;;;;;;;;;;;;12.52;61.06;100772.94;7402232;19;990;-65
2022/12/23 05:35:55;;;;;;;;;;;;;;;12.42;61.30;100764.66;7402211;19;935;-66
2022/12/23 05:38:23;;;;;;;;;;;;;;;12.37;61.61;100760.59;7401665;19;1005;-66
2022/12/23 05:40:54;;;;;;;;;;;;;;;12.34;61.50;100773.09;7401914;19;931;-66
2022/12/23 05:43:23;;;;;;;;;;;;;;;12.39;61.63;100769.31;7399311;19;1853;-66
2022/12/23 05:45:52;;;;;;;;;;;;;;;12.42;61.49;100769.13;7401355;19;979;-65
2022/12/23 05:48:20;;;;;;;;;;;;;;;12.47;61.26;100761.72;7401931;19;1011;-66
2022/12/23 05:50:51;;;;;;;;;;;;;;;12.48;61.47;100769.59;7401459;19;978;-66
2022/12/23 05:53:19;;;;;;;;;;;;;;;12.50;61.05;100756.25;7401634;19;951;-66
2022/12/23 05:55:48;;;;;;;;;;;;;;;12.54;60.94;100757.78;7401232;19;1060;-65
2022/12/23 05:58:19;;;;;;;;;;;;;;;12.55;61.27;100770.06;7401138;19;1010;-66
2022/12/23 06:00:47;;;;;;;;;;;;;;;12.43;61.60;100754.91;7400950;19;1113;-66
2022/12/23 06:03:15;;;;;;;;;;;;;;;12.40;61.38;100755.09;7407716;19;1853;-66
2022/12/23 06:05:43;;;;;;;;;;;;;;;12.34;61.48;100751.03;7408474;19;970;-66
2022/12/23 06:08:12;;;;;;;;;;;;;;;12.37;61.41;100765.88;7409051;19;1015;-65
2022/12/23 06:10:40;;;;;;;;;;;;;;;12.41;61.33;100749.69;7408513;19;1083;-64
2022/12/23 06:13:08;;;;;;;;;;;;;;;12.42;61.54;100761.19;7408522;19;1027;-64
2022/12/23 06:15:39;;;;;;;;;;;;;;;12.47;61.33;100767.03;7408818;19;1009;-64
2022/12/23 06:18:07;;;;;;;;;;;;;;;12.50;61.24;100777.47;7408081;19;1197;-64
2022/12/23 06:20:36;;;;;;;;;;;;;;;12.50;61.08;100772.16;7408172;19;1067;-64
2022/12/23 06:23:04;;;;;;;;;;;;;;;12.50;61.12;100788.09;7405612;19;1467;-64
2022/12/23 06:25:33;;;;;;;;;;;;;;;12.46;61.26;100783.91;7408030;19;1064;-64
2022/12/23 06:28:01;;;;;;;;;;;;;;;12.43;61.52;100774.31;7408004;19;1120;-64
2022/12/23 06:30:29;;;;;;;;;;;;;;;12.40;61.38;100792.25;7407711;19;1005;-64
2022/12/23 06:33:00;;;;;;;;;;;;;;;12.36;61.67;100780.09;7408226;19;935;-66
2022/12/23 06:35:28;;;;;;;;;;;;;;;12.43;61.27;100792.03;7408158;19;987;-65
2022/12/23 06:37:57;;;;;;;;;;;;;;;12.48;61.38;100792.63;7407696;19;968;-64
2022/12/23 06:40:27;;;;;;;;;;;;;;;12.54;61.32;100786.94;7407598;19;1027;-64
2022/12/23 06:42:56;;;;;;;;;;;;;;;12.56;61.23;100778.91;7407881;19;952;-64
2022/12/23 06:45:24;;;;;;;;;;;;;;;12.57;60.90;100789.41;7404967;19;1854;-64
2022/12/23 06:47:52;;;;;;;;;;;;;;;12.56;61.07;100785.06;7407408;19;956;-66
2022/12/23 06:50:23;;;;;;;;;;;;;;;12.40;61.27;100777.16;7407296;19;1039;-66
2022/12/23 06:52:51;;;;;;;;;;;;;;;12.40;61.66;100805.50;7407036;19;940;-66
2022/12/23 06:55:20;;;;;;;;;;;;;;;12.38;61.57;100783.53;7404815;19;916;-66
2022/12/23 06:57:48;;;;;;;;;;;;;;;12.45;61.13;100787.50;7406980;19;1028;-64
2022/12/23 07:00:17;;;;;;;;;;;;;;;12.46;61.02;100774.16;7406872;19;989;-65
2022/12/23 07:02:45;;;;;;;;;;;;;;;12.51;61.14;100779.16;7404395;19;1359;-65
2022/12/23 07:05:14;;;;;;;;;;;;;;;12.52;61.03;100791.50;7404463;19;1859;-66
2022/12/23 07:07:45;;;;;;;;;;;;;;;12.53;61.27;100806.44;7406543;19;1066;-66
2022/12/23 07:10:13;;;;;;;;;;;;;;;12.44;61.44;100812.31;7407066;19;1000;-66
2022/12/23 07:12:41;;;;;;;;;;;;;;;12.39;61.68;100807.28;7403950;19;1372;-66
2022/12/23 07:15:11;;;;;;;;;;;;;;;12.37;61.45;100803.84;7406850;19;939;-66
2022/12/23 07:17:39;;;;;;;;;;;;;;;12.40;61.35;100809.00;7406196;19;1207;-66
2022/12/23 07:20:08;;;;;;;;;;;;;;;12.46;61.17;100792.72;7406676;19;1013;-66
2022/12/23 07:22:38;;;;;;;;;;;;;;;12.42;61.33;100793.00;7406592;19;944;-66
2022/12/23 07:25:10;;;;;;;;;;;;;;;12.41;61.32;100783.31;7404338;19;1866;-66
2022/12/23 07:27:38;;;;;;;;;;;;;;;12.37;61.33;100782.66;7406014;19;1001;-66
2022/12/23 07:30:07;;;;;;;;;;;;;;;12.33;61.39;100802.34;7405747;19;1001;-64
2022/12/23 07:32:35;;;;;;;;;;;;;;;12.25;61.73;100788.69;7406304;19;927;-66
2022/12/23 07:35:04;;;;;;;;;;;;;;;12.33;61.57;100782.00;7405750;19;1064;-65
2022/12/23 07:37:32;;;;;;;;;;;;;;;12.57;61.18;100805.31;7405686;19;1108;-64
2022/12/23 07:40:00;;;;;;;;;;;;;;;12.55;61.11;100799.25;7405633;19;1020;-64
2022/12/23 07:42:31;;;;;;;;;;;;;;;12.51;61.14;100801.25;7405365;19;1001;-66
2022/12/23 07:44:59;;;;;;;;;;;;;;;12.46;61.60;100813.09;7404508;19;1851;-66
2022/12/23 07:47:28;;;;;;;;;;;;;;;12.37;61.46;100809.16;7405423;19;996;-65
2022/12/23 07:49:56;;;;;;;;;;;;;;;12.37;61.53;100813.63;7405397;19;905;-65
2022/12/23 07:52:24;;;;;;;;;;;;;;;12.44;61.19;100821.13;7405188;19;1000;-65
2022/12/23 07:54:53;;;;;;;;;;;;;;;12.46;61.24;100818.38;7402691;19;1850;-65
2022/12/23 07:57:23;;;;;;;;;;;;;;;12.46;61.11;100816.59;7405393;19;1148;-65
2022/12/23 07:59:54;;;;;;;;;;;;;;;12.37;61.50;100809.16;7405022;19;1020;-65
2022/12/23 08:02:23;;;;;;;;;;;;;;;12.40;61.31;100813.47;7403667;19;1312;-64
2022/12/23 08:04:52;;;;;;;;;;;;;;;12.48;61.56;100811.19;7403543;19;1847;-65
2022/12/23 08:07:20;;;;;;;;;;;;;;;12.52;61.09;100818.03;7404616;19;897;-65
2022/12/23 08:09:48;;;;;;;;;;;;;;;12.50;61.25;100794.22;7404594;19;1032;-65
2022/12/23 08:12:16;;;;;;;;;;;;;;;12.45;61.44;100788.34;7404571;19;984;-65
2022/12/23 08:14:47;;;;;;;;;;;;;;;12.45;61.01;100800.75;7404885;19;1035;-65
2022/12/23 08:17:19;;;;;;;;;;;;;;;12.52;61.35;100797.66;7404659;19;1142;-64
2022/12/23 08:19:48;;;;;;;;;;;;;;;12.52;61.17;100796.81;7404309;19;961;-65
2022/12/23 08:22:16;;;;;;;;;;;;;;;12.57;61.16;100788.56;7404648;19;952;-65
2022/12/23 08:24:45;;;;;;;;;;;;;;;12.61;61.26;100790.06;7400688;19;1846;-67
2022/12/23 08:27:13;;;;;;;;;;;;;;;12.57;61.08;100800.00;7404133;19;997;-67
2022/12/23 08:29:42;;;;;;;;;;;;;;;12.55;61.26;100796.59;7404149;19;932;-65
2022/12/23 08:32:10;;;;;;;;;;;;;;;12.53;61.02;100811.75;7404426;19;990;-66
2022/12/23 08:34:41;;;;;;;;;;;;;;;12.60;61.07;100797.19;7403881;19;968;-65
2022/12/23 08:37:10;;;;;;;;;;;;;;;12.72;60.65;100790.28;7403728;19;972;-67
2022/12/23 08:39:38;;;;;;;;;;;;;;;12.79;60.65;100788.09;7403674;19;1005;-66
2022/12/23 08:42:06;;;;;;;;;;;;;;;12.81;60.56;100780.88;7403354;19;981;-67
2022/12/23 08:44:35;;;;;;;;;;;;;;;12.76;60.87;100783.84;7403283;19;1860;-66
2022/12/23 08:47:03;;;;;;;;;;;;;;;12.74;60.43;100785.72;7403424;19;1058;-65
2022/12/23 08:49:31;;;;;;;;;;;;;;;12.81;60.39;100764.97;7403708;19;951;-65
2022/12/23 08:52:02;;;;;;;;;;;;;;;12.86;60.47;100766.38;7403227;19;1000;-66
2022/12/23 08:54:31;;;;;;;;;;;;;;;12.89;60.45;100770.66;7403418;19;926;-65
2022/12/23 08:56:59;;;;;;;;;;;;;;;12.90;60.31;100764.41;7403074;19;1016;-65
2022/12/23 08:59:27;;;;;;;;;;;;;;;12.84;60.42;100757.69;7403195;19;1005;-66
2022/12/23 09:01:58;;;;;;;;;;;;;;;12.86;60.40;100758.44;7401583;19;1362;-67
2022/12/23 09:04:26;;;;;;;;;;;;;;;12.94;60.47;100758.81;7402439;19;1865;-65
2022/12/23 09:06:55;;;;;;;;;;;;;;;12.97;60.25;100747.16;7402532;19;1059;-66
2022/12/23 09:09:26;;;;;;;;;;;;;;;12.96;60.22;100755.22;7402606;19;1064;-65
2022/12/23 09:11:54;;;;;;;;;;;;;;;12.93;60.13;100750.94;7403055;19;1005;-65
2022/12/23 09:14:22;;;;;;;;;;;;;;;12.99;60.30;100742.59;7401199;19;1380;-67
2022/12/23 09:16:51;;;;;;;;;;;;;;;13.06;59.90;100751.88;7402373;19;1067;-67
2022/12/23 09:19:19;;;;;;;;;;;;;;;13.05;59.85;100742.22;7402778;19;939;-66
2022/12/23 09:21:48;;;;;;;;;;;;;;;13.00;60.21;100746.94;7402256;19;988;-66
2022/12/23 09:24:16;;;;;;;;;;;;;;;13.03;60.36;100743.25;7402498;19;1845;-65
2022/12/23 09:26:47;;;;;;;;;;;;;;;13.11;60.03;100741.81;7402223;19;964;-66
2022/12/23 09:29:15;;;;;;;;;;;;;;;13.13;60.13;100739.91;7402314;19;964;-67
2022/12/23 09:31:44;;;;;;;;;;;;;;;13.11;60.25;100733.84;7400688;19;1488;-67
2022/12/23 09:34:13;;;;;;;;;;;;;;;13.06;60.08;100730.63;7401929;19;1056;-67
2022/12/23 09:36:41;;;;;;;;;;;;;;;13.11;60.15;100739.16;7399784;19;997;-66
2022/12/23 09:39:11;;;;;;;;;;;;;;;13.21;60.01;100725.28;7402174;19;999;-67
2022/12/23 09:42:00;;;;;;;;;;;;;;;13.18;59.82;100734.31;7399713;19;1399;-65
2022/12/23 09:44:36;;;;;;;;;;;;;;;13.11;60.13;100715.28;7401842;19;1862;-67
2022/12/23 09:47:06;;;;;;;;;;;;;;;13.05;60.36;100726.28;7401650;19;987;-66
2022/12/23 09:49:35;;;;;;;;;;;;;;;13.12;60.08;100711.66;7401855;19;956;-66
2022/12/23 09:52:05;;;;;;;;;;;;;;;13.26;59.82;100733.81;7401890;19;943;-67
2022/12/23 09:54:39;;;;;;;;;;;;;;;13.25;60.15;100722.34;7401179;19;1107;-67
2022/12/23 09:57:15;;;;;;;;;;;;;;;13.13;60.39;100724.00;7401548;19;968;-66
2022/12/23 09:59:50;;;;;;;;;;;;;;;12.99;60.81;100725.81;7401256;19;969;-66
2022/12/23 10:02:22;;;;;;;;;;;;;;;13.02;60.64;100737.09;7399633;19;1373;-66
2022/12/23 10:04:55;;;;;;;;;;;;;;;13.20;60.24;100718.28;7401076;19;1862;-65
2022/12/23 10:07:32;;;;;;;;;;;;;;;13.23;60.12;100718.94;7401372;19;919;-65
2022/12/23 10:10:04;;;;;;;;;;;;;;;13.19;60.34;100713.91;7401383;19;998;-66
2022/12/23 10:12:40;;;;;;;;;;;;;;;13.13;60.25;100716.03;7401361;19;987;-67
2022/12/23 10:15:18;;;;;;;;;;;;;;;13.09;60.32;100714.53;7400871;19;977;-66
2022/12/23 10:17:47;;;;;;;;;;;;;;;13.25;60.25;100718.81;7400983;19;949;-66
2022/12/23 10:20:19;;;;;;;;;;;;;;;13.27;60.27;100708.94;7400628;19;1144;-65
2022/12/23 10:22:47;;;;;;;;;;;;;;;13.19;60.08;100714.78;7400533;19;959;-66
2022/12/23 10:25:17;;;;;;;;;;;;;;;13.07;60.57;100707.56;7398872;19;1861;-66
2022/12/23 10:27:48;;;;;;;;;;;;;;;13.03;60.72;100706.94;7398381;19;1400;-67
2022/12/23 10:30:17;;;;;;;;;;;;;;;13.17;60.33;100708.72;7400722;19;1002;-67
2022/12/23 10:32:55;;;;;;;;;;;;;;;13.26;60.32;100702.78;7400342;19;981;-67
2022/12/23 10:35:31;;;;;;;;;;;;;;;13.20;60.22;100702.34;7400671;19;964;-67
2022/12/23 10:38:04;;;;;;;;;;;;;;;13.09;60.41;100701.25;7400178;19;1063;-67
2022/12/23 10:40:37;;;;;;;;;;;;;;;13.02;60.67;100702.56;7400171;19;1036;-66
2022/12/23 10:43:16;;;;;;;;;;;;;;;13.05;60.55;100697.09;7397928;19;1020;-66
2022/12/23 10:45:49;;;;;;;;;;;;;;;13.22;60.44;100700.44;7398829;19;1845;-65
2022/12/23 10:48:24;;;;;;;;;;;;;;;13.20;60.33;100707.66;7403803;19;1007;-66
2022/12/23 10:50:57;;;;;;;;;;;;;;;13.11;60.80;100704.66;7407347;19;949;-66
2022/12/23 10:53:30;;;;;;;;;;;;;;;13.03;60.65;100706.06;7407060;19;1019;-67
2022/12/23 10:55:59;;;;;;;;;;;;;;;13.06;60.72;100697.94;7407524;19;956;-67
2022/12/23 10:58:31;;;;;;;;;;;;;;;13.17;60.62;100702.53;7407081;19;949;-66
2022/12/23 11:01:00;;;;;;;;;;;;;;;13.19;60.65;100716.56;7405929;19;1415;-66
2022/12/23 11:03:30;;;;;;;;;;;;;;;13.07;60.89;100718.19;7406923;19;945;-65
2022/12/23 11:05:59;;;;;;;;;;;;;;;12.98;60.74;100713.50;7405145;19;1857;-67
2022/12/23 11:08:28;;;;;;;;;;;;;;;12.93;61.43;100716.41;7407019;19;979;-67
2022/12/23 11:10:57;;;;;;;;;;;;;;;12.92;60.90;100706.78;7406582;19;1071;-66
2022/12/23 11:13:27;;;;;;;;;;;;;;;13.08;60.69;100728.72;7406596;19;1002;-67
2022/12/23 11:16:12;;;;;;;;;;;;;;;13.03;60.73;100709.59;7406902;19;941;-66
2022/12/23 11:18:53;;;;;;;;;;;;;;;12.90;61.30;100706.88;7406591;19;1012;-65
2022/12/23 11:21:21;;;;;;;;;;;;;;;12.88;61.20;100723.84;7406301;19;1072;-66
2022/12/23 11:24:07;;;;;;;;;;;;;;;12.91;61.31;100713.88;7406225;19;1075;-67
2022/12/23 11:26:35;;;;;;;;;;;;;;;12.96;61.03;100708.28;7404269;19;1850;-66
2022/12/23 11:29:08;;;;;;;;;;;;;;;12.92;61.27;100707.63;7406439;19;986;-66
2022/12/23 11:31:39;;;;;;;;;;;;;;;12.87;61.34;100700.88;7405932;19;936;-65
2022/12/23 11:34:08;;;;;;;;;;;;;;;12.81;61.56;100699.50;7405917;19;1016;-66
2022/12/23 11:36:37;;;;;;;;;;;;;;;12.87;61.48;100701.75;7406178;19;986;-67
2022/12/23 11:39:07;;;;;;;;;;;;;;;12.87;61.20;100684.97;7406168;19;977;-66
2022/12/23 11:41:38;;;;;;;;;;;;;;;12.91;61.22;100689.13;7405909;19;1018;-66
2022/12/23 11:44:08;;;;;;;;;;;;;;;12.84;61.38;100675.41;7405375;19;965;-66
2022/12/23 11:46:39;;;;;;;;;;;;;;;12.82;61.40;100689.72;7404210;19;1818;-66
2022/12/23 11:49:08;;;;;;;;;;;;;;;12.83;61.50;100696.72;7405763;19;923;-65
2022/12/23 11:51:36;;;;;;;;;;;;;;;12.89;61.27;100686.59;7405225;19;1025;-66
2022/12/23 11:54:05;;;;;;;;;;;;;;;12.93;61.46;100688.09;7405009;19;1000;-66
2022/12/23 11:56:37;;;;;;;;;;;;;;;12.78;61.49;100680.25;7405614;19;1146;-66
2022/12/23 11:59:07;;;;;;;;;;;;;;;12.77;61.83;100686.50;7402587;19;1079;-67
2022/12/23 12:01:38;;;;;;;;;;;;;;;12.82;61.60;100687.06;7403579;19;1359;-64
2022/12/23 12:04:10;;;;;;;;;;;;;;;12.87;61.42;100674.34;7405237;19;996;-67
2022/12/23 12:06:44;;;;;;;;;;;;;;;12.92;61.61;100675.75;7403100;19;1854;-66
2022/12/23 12:09:14;;;;;;;;;;;;;;;12.82;61.45;100681.78;7405097;19;979;-66
2022/12/23 12:11:48;;;;;;;;;;;;;;;12.78;61.57;100669.66;7402803;19;959;-67
2022/12/23 12:14:22;;;;;;;;;;;;;;;12.77;61.71;100674.06;7404312;19;948;-69
2022/12/23 12:16:55;;;;;;;;;;;;;;;12.83;61.52;100672.84;7402628;19;1469;-65
2022/12/23 12:19:27;;;;;;;;;;;;;;;12.87;61.57;100675.22;7404024;19;1076;-64
2022/12/23 12:21:57;;;;;;;;;;;;;;;12.86;61.51;100672.66;7404301;19;1305;-65
2022/12/23 12:24:27;;;;;;;;;;;;;;;12.78;61.76;100681.09;7404577;19;915;-66
2022/12/23 12:26:56;;;;;;;;;;;;;;;12.83;61.69;100694.06;7402523;19;1855;-66
2022/12/23 12:29:28;;;;;;;;;;;;;;;12.87;61.53;100707.06;7404280;19;991;-65
2022/12/23 12:31:59;;;;;;;;;;;;;;;13.00;61.04;100687.72;7403848;19;1075;-66
2022/12/23 12:34:37;;;;;;;;;;;;;;;12.83;61.72;100691.41;7403829;19;1004;-66
2022/12/23 12:37:09;;;;;;;;;;;;;;;12.76;61.68;100682.16;7403740;19;1072;-66
2022/12/23 12:39:39;;;;;;;;;;;;;;;12.74;62.19;100691.06;7403665;19;1016;-66
2022/12/23 12:42:13;;;;;;;;;;;;;;;12.78;61.60;100685.56;7403104;19;1071;-67
2022/12/23 12:44:43;;;;;;;;;;;;;;;12.79;61.71;100692.56;7401989;19;1467;-67
2022/12/23 12:47:14;;;;;;;;;;;;;;;12.79;61.77;100697.88;7401854;19;1860;-66
2022/12/23 12:49:48;;;;;;;;;;;;;;;12.76;61.78;100692.78;7403494;19;1007;-67
2022/12/23 12:52:18;;;;;;;;;;;;;;;12.74;62.07;100698.16;7403752;19;1023;-66
2022/12/23 12:54:50;;;;;;;;;;;;;;;12.77;61.96;100692.66;7403139;19;925;-67
2022/12/23 12:57:19;;;;;;;;;;;;;;;12.77;61.93;100687.34;7403088;19;985;-66
2022/12/23 12:59:50;;;;;;;;;;;;;;;12.76;62.00;100698.09;7401621;19;889;-65
2022/12/23 13:02:36;;;;;;;;;;;;;;;12.70;61.98;100672.78;7401674;19;1437;-67
2022/12/23 13:05:20;;;;;;;;;;;;;;;12.73;62.00;100699.97;7402889;19;1079;-66
2022/12/23 13:07:57;;;;;;;;;;;;;;;12.81;61.94;100693.31;7402666;19;941;-67
2022/12/23 13:10:31;;;;;;;;;;;;;;;12.87;61.91;100712.38;7402190;19;1047;-66
2022/12/23 13:13:04;;;;;;;;;;;;;;;12.74;61.92;100695.50;7401226;19;1466;-67
2022/12/23 13:15:36;;;;;;;;;;;;;;;12.71;61.91;100717.78;7402608;19;1043;-66
2022/12/23 13:18:20;;;;;;;;;;;;;;;12.70;62.14;100700.16;7402807;19;1014;-66
2022/12/23 13:20:56;;;;;;;;;;;;;;;12.77;61.92;100683.84;7402830;19;994;-66
2022/12/23 13:23:31;;;;;;;;;;;;;;;12.72;61.84;100708.03;7402399;19;1023;-66
2022/12/23 13:26:03;;;;;;;;;;;;;;;12.72;62.12;100692.94;7400801;19;1851;-65
2022/12/23 13:28:37;;;;;;;;;;;;;;;12.67;62.09;100710.09;7402649;19;888;-67
2022/12/23 13:31:09;;;;;;;;;;;;;;;12.71;61.96;100695.69;7401933;19;1066;-66
2022/12/23 13:33:40;;;;;;;;;;;;;;;12.74;61.89;100696.34;7402047;19;968;-65
2022/12/23 13:36:21;;;;;;;;;;;;;;;12.75;62.02;100707.81;7400010;19;1187;-65
2022/12/23 13:39:05;;;;;;;;;;;;;;;12.70;62.17;100694.84;7401837;19;1037;-67